sensor_id;sensor_type;location;lat;lon;timestamp;P1;durP1;ratioP1;P2;durP2;ratioP2
43311;SDS011;30041;48.300;16.352;2023-01-19T00:01:58;0.73;;;0.45;;
43311;SDS011;30041;48.300;16.352;2023-01-19T00:04:23;0.95;;;0.40;;
43311;SDS011;30041;48.300;16.352;2023-01-19T00:06:49;1.33;;;0.50;;
43311;SDS011;30041;48.300;16.352;2023-01-19T00:09:14;0.70;;;0.30;;
43311;SDS011;30041;48.300;16.352;2023-01-19T00:11:39;0.47;;;0.43;;
43311;SDS011;30041;48.300;16.352;2023-01-19T00:14:05;1.33;;;0.50;;
43311;SDS011;30041;48.300;16.352;2023-01-19T00:16:31;1.15;;;0.40;;
43311;SDS011;30041;48.300;16.352;2023-01-19T00:18:56;1.00;;;0.70;;
43311;SDS011;30041;48.300;16.352;2023-01-19T00:21:22;1.05;;;0.50;;
43311;SDS011;30041;48.300;16.352;2023-01-19T00:23:47;0.52;;;0.40;;
43311;SDS011;30041;48.300;16.352;2023-01-19T00:26:13;0.75;;;0.50;;
43311;SDS011;30041;48.300;16.352;2023-01-19T00:28:41;0.52;;;0.40;;
43311;SDS011;30041;48.300;16.352;2023-01-19T00:31:07;0.77;;;0.40;;
43311;SDS011;30041;48.300;16.352;2023-01-19T00:33:33;0.65;;;0.43;;
43311;SDS011;30041;48.300;16.352;2023-01-19T00:35:58;0.55;;;0.32;;
43311;SDS011;30041;48.300;16.352;2023-01-19T00:38:24;0.40;;;0.30;;
43311;SDS011;30041;48.300;16.352;2023-01-19T00:40:49;0.30;;;0.30;;
43311;SDS011;30041;48.300;16.352;2023-01-19T00:43:15;0.90;;;0.38;;
43311;SDS011;30041;48.300;16.352;2023-01-19T00:45:40;0.57;;;0.40;;
43311;SDS011;30041;48.300;16.352;2023-01-19T00:48:06;0.52;;;0.30;;
43311;SDS011;30041;48.300;16.352;2023-01-19T00:50:32;0.93;;;0.40;;
43311;SDS011;30041;48.300;16.352;2023-01-19T00:52:58;0.90;;;0.50;;
43311;SDS011;30041;48.300;16.352;2023-01-19T00:55:24;0.60;;;0.30;;
43311;SDS011;30041;48.300;16.352;2023-01-19T00:57:51;0.40;;;0.30;;
43311;SDS011;30041;48.300;16.352;2023-01-19T01:00:16;0.70;;;0.22;;
43311;SDS011;30041;48.300;16.352;2023-01-19T01:02:43;0.77;;;0.52;;
43311;SDS011;30041;48.300;16.352;2023-01-19T01:05:09;0.50;;;0.35;;
43311;SDS011;30041;48.300;16.352;2023-01-19T01:07:35;0.50;;;0.30;;
43311;SDS011;30041;48.300;16.352;2023-01-19T01:10:01;0.50;;;0.30;;
43311;SDS011;30041;48.300;16.352;2023-01-19T01:12:26;0.20;;;0.20;;
43311;SDS011;30041;48.300;16.352;2023-01-19T01:14:52;0.30;;;0.20;;
43311;SDS011;30041;48.300;16.352;2023-01-19T01:17:17;0.40;;;0.30;;
43311;SDS011;30041;48.300;16.352;2023-01-19T01:19:43;0.60;;;0.40;;
43311;SDS011;30041;48.300;16.352;2023-01-19T01:22:08;0.93;;;0.30;;
43311;SDS011;30041;48.300;16.352;2023-01-19T01:24:34;0.43;;;0.30;;
43311;SDS011;30041;48.300;16.352;2023-01-19T01:27:00;0.43;;;0.30;;
43311;SDS011;30041;48.300;16.352;2023-01-19T01:29:25;0.70;;;0.40;;
43311;SDS011;30041;48.300;16.352;2023-01-19T01:31:51;0.40;;;0.30;;
43311;SDS011;30041;48.300;16.352;2023-01-19T01:34:17;0.13;;;0.10;;
43311;SDS011;30041;48.300;16.352;2023-01-19T01:36:43;0.40;;;0.40;;
43311;SDS011;30041;48.300;16.352;2023-01-19T01:39:08;0.80;;;0.40;;
43311;SDS011;30041;48.300;16.352;2023-01-19T01:41:34;0.32;;;0.20;;
43311;SDS011;30041;48.300;16.352;2023-01-19T01:43:59;0.40;;;0.20;;
43311;SDS011;30041;48.300;16.352;2023-01-19T01:46:25;0.60;;;0.40;;
43311;SDS011;30041;48.300;16.352;2023-01-19T01:49:06;0.35;;;0.30;;
43311;SDS011;30041;48.300;16.352;2023-01-19T01:51:45;0.82;;;0.40;;
43311;SDS011;30041;48.300;16.352;2023-01-19T01:54:22;0.70;;;0.20;;
43311;SDS011;30041;48.300;16.352;2023-01-19T01:56:55;0.47;;;0.28;;
43311;SDS011;30041;48.300;16.352;2023-01-19T01:59:25;0.38;;;0.10;;
43311;SDS011;30041;48.300;16.352;2023-01-19T02:01:58;0.63;;;0.40;;
43311;SDS011;30041;48.300;16.352;2023-01-19T02:04:27;0.55;;;0.20;;
43311;SDS011;30041;48.300;16.352;2023-01-19T02:06:54;0.35;;;0.25;;
43311;SDS011;30041;48.300;16.352;2023-01-19T02:09:19;0.30;;;0.20;;
43311;SDS011;30041;48.300;16.352;2023-01-19T02:11:46;0.40;;;0.30;;
43311;SDS011;30041;48.300;16.352;2023-01-19T02:14:12;0.30;;;0.20;;
43311;SDS011;30041;48.300;16.352;2023-01-19T02:16:38;0.45;;;0.30;;
43311;SDS011;30041;48.300;16.352;2023-01-19T02:19:04;0.35;;;0.30;;
43311;SDS011;30041;48.300;16.352;2023-01-19T02:24:18;0.60;;;0.40;;
43311;SDS011;30041;48.300;16.352;2023-01-19T02:26:45;0.30;;;0.20;;
43311;SDS011;30041;48.300;16.352;2023-01-19T02:29:17;0.30;;;0.17;;
43311;SDS011;30041;48.300;16.352;2023-01-19T02:31:44;0.40;;;0.30;;
43311;SDS011;30041;48.300;16.352;2023-01-19T02:34:11;0.17;;;0.17;;
43311;SDS011;30041;48.300;16.352;2023-01-19T02:36:45;0.35;;;0.20;;
43311;SDS011;30041;48.300;16.352;2023-01-19T02:39:12;0.40;;;0.20;;
43311;SDS011;30041;48.300;16.352;2023-01-19T02:41:42;0.20;;;0.20;;
43311;SDS011;30041;48.300;16.352;2023-01-19T02:44:13;0.28;;;0.20;;
43311;SDS011;30041;48.300;16.352;2023-01-19T02:46:40;0.35;;;0.30;;
43311;SDS011;30041;48.300;16.352;2023-01-19T02:49:06;0.28;;;0.10;;
43311;SDS011;30041;48.300;16.352;2023-01-19T02:51:31;0.43;;;0.28;;
43311;SDS011;30041;48.300;16.352;2023-01-19T03:08:05;0.10;;;0.10;;
43311;SDS011;30041;48.300;16.352;2023-01-19T03:16:13;0.28;;;0.20;;
43311;SDS011;30041;48.300;16.352;2023-01-19T03:18:40;0.20;;;0.10;;
43311;SDS011;30041;48.300;16.352;2023-01-19T03:21:09;0.40;;;0.20;;
43311;SDS011;30041;48.300;16.352;2023-01-19T03:23:37;0.43;;;0.20;;
43311;SDS011;30041;48.300;16.352;2023-01-19T03:26:08;0.20;;;0.20;;
43311;SDS011;30041;48.300;16.352;2023-01-19T03:28:38;0.10;;;0.10;;
43311;SDS011;30041;48.300;16.352;2023-01-19T03:31:09;0.45;;;0.30;;
43311;SDS011;30041;48.300;16.352;2023-01-19T03:33:39;0.30;;;0.10;;
43311;SDS011;30041;48.300;16.352;2023-01-19T03:36:13;0.20;;;0.20;;
43311;SDS011;30041;48.300;16.352;2023-01-19T03:38:44;0.43;;;0.30;;
43311;SDS011;30041;48.300;16.352;2023-01-19T03:41:12;0.30;;;0.20;;
43311;SDS011;30041;48.300;16.352;2023-01-19T03:43:40;0.40;;;0.20;;
43311;SDS011;30041;48.300;16.352;2023-01-19T03:46:07;0.20;;;0.20;;
43311;SDS011;30041;48.300;16.352;2023-01-19T03:48:33;0.13;;;0.13;;
43311;SDS011;30041;48.300;16.352;2023-01-19T03:51:03;0.40;;;0.10;;
43311;SDS011;30041;48.300;16.352;2023-01-19T03:53:31;0.30;;;0.10;;
43311;SDS011;30041;48.300;16.352;2023-01-19T03:55:56;0.20;;;0.20;;
43311;SDS011;30041;48.300;16.352;2023-01-19T03:58:22;0.20;;;0.13;;
43311;SDS011;30041;48.300;16.352;2023-01-19T04:00:47;0.10;;;0.10;;
43311;SDS011;30041;48.300;16.352;2023-01-19T04:03:14;0.25;;;0.20;;
43311;SDS011;30041;48.300;16.352;2023-01-19T04:05:40;0.35;;;0.20;;
43311;SDS011;30041;48.300;16.352;2023-01-19T04:08:06;0.30;;;0.28;;
43311;SDS011;30041;48.300;16.352;2023-01-19T04:10:32;0.28;;;0.17;;
43311;SDS011;30041;48.300;16.352;2023-01-19T04:12:58;0.10;;;0.10;;
43311;SDS011;30041;48.300;16.352;2023-01-19T04:15:25;0.30;;;0.20;;
43311;SDS011;30041;48.300;16.352;2023-01-19T04:17:52;0.20;;;0.20;;
43311;SDS011;30041;48.300;16.352;2023-01-19T04:20:17;0.30;;;0.20;;
43311;SDS011;30041;48.300;16.352;2023-01-19T04:22:43;0.20;;;0.20;;
43311;SDS011;30041;48.300;16.352;2023-01-19T04:25:09;0.30;;;0.20;;
43311;SDS011;30041;48.300;16.352;2023-01-19T04:27:35;0.20;;;0.20;;
43311;SDS011;30041;48.300;16.352;2023-01-19T04:30:01;0.22;;;0.15;;
43311;SDS011;30041;48.300;16.352;2023-01-19T04:32:27;0.10;;;0.10;;
43311;SDS011;30041;48.300;16.352;2023-01-19T04:34:53;0.30;;;0.20;;
43311;SDS011;30041;48.300;16.352;2023-01-19T04:37:19;0.35;;;0.20;;
43311;SDS011;30041;48.300;16.352;2023-01-19T04:39:44;0.20;;;0.13;;
43311;SDS011;30041;48.300;16.352;2023-01-19T04:42:10;0.43;;;0.20;;
43311;SDS011;30041;48.300;16.352;2023-01-19T04:44:35;0.20;;;0.10;;
43311;SDS011;30041;48.300;16.352;2023-01-19T04:47:01;0.10;;;0.10;;
43311;SDS011;30041;48.300;16.352;2023-01-19T04:49:26;0.20;;;0.10;;
43311;SDS011;30041;48.300;16.352;2023-01-19T04:51:52;0.10;;;0.10;;
43311;SDS011;30041;48.300;16.352;2023-01-19T04:54:18;0.28;;;0.10;;
43311;SDS011;30041;48.300;16.352;2023-01-19T04:56:44;0.20;;;0.20;;
43311;SDS011;30041;48.300;16.352;2023-01-19T04:59:09;0.10;;;0.10;;
43311;SDS011;30041;48.300;16.352;2023-01-19T05:01:35;0.20;;;0.10;;
43311;SDS011;30041;48.300;16.352;2023-01-19T05:04:00;0.38;;;0.20;;
43311;SDS011;30041;48.300;16.352;2023-01-19T05:06:26;0.10;;;0.10;;
43311;SDS011;30041;48.300;16.352;2023-01-19T05:08:51;0.10;;;0.10;;
43311;SDS011;30041;48.300;16.352;2023-01-19T05:11:17;0.30;;;0.10;;
43311;SDS011;30041;48.300;16.352;2023-01-19T05:13:42;0.10;;;0.10;;
43311;SDS011;30041;48.300;16.352;2023-01-19T05:16:08;0.30;;;0.10;;
43311;SDS011;30041;48.300;16.352;2023-01-19T05:18:33;0.10;;;0.10;;
43311;SDS011;30041;48.300;16.352;2023-01-19T05:21:00;0.08;;;0.03;;
43311;SDS011;30041;48.300;16.352;2023-01-19T05:23:26;0.10;;;0.10;;
43311;SDS011;30041;48.300;16.352;2023-01-19T05:25:51;0.17;;;0.10;;
43311;SDS011;30041;48.300;16.352;2023-01-19T05:28:17;0.10;;;0.05;;
43311;SDS011;30041;48.300;16.352;2023-01-19T05:30:42;0.00;;;0.00;;
43311;SDS011;30041;48.300;16.352;2023-01-19T05:33:08;1.10;;;0.10;;
43311;SDS011;30041;48.300;16.352;2023-01-19T05:35:33;0.22;;;0.17;;
43311;SDS011;30041;48.300;16.352;2023-01-19T05:37:59;0.10;;;0.10;;
43311;SDS011;30041;48.300;16.352;2023-01-19T05:40:24;0.10;;;0.00;;
43311;SDS011;30041;48.300;16.352;2023-01-19T05:42:50;0.00;;;0.00;;
43311;SDS011;30041;48.300;16.352;2023-01-19T05:45:15;0.00;;;0.00;;
43311;SDS011;30041;48.300;16.352;2023-01-19T05:47:41;0.00;;;0.00;;
43311;SDS011;30041;48.300;16.352;2023-01-19T05:50:07;0.05;;;0.00;;
43311;SDS011;30041;48.300;16.352;2023-01-19T05:52:32;0.00;;;0.00;;
43311;SDS011;30041;48.300;16.352;2023-01-19T05:54:58;0.00;;;0.00;;
43311;SDS011;30041;48.300;16.352;2023-01-19T05:57:23;0.00;;;0.00;;
43311;SDS011;30041;48.300;16.352;2023-01-19T05:59:49;0.20;;;0.10;;
43311;SDS011;30041;48.300;16.352;2023-01-19T06:02:14;0.00;;;0.00;;
43311;SDS011;30041;48.300;16.352;2023-01-19T06:04:40;0.00;;;0.00;;
43311;SDS011;30041;48.300;16.352;2023-01-19T06:07:05;0.00;;;0.00;;
43311;SDS011;30041;48.300;16.352;2023-01-19T06:09:31;0.10;;;0.00;;
43311;SDS011;30041;48.300;16.352;2023-01-19T06:11:57;0.10;;;0.00;;
43311;SDS011;30041;48.300;16.352;2023-01-19T06:14:22;0.10;;;0.10;;
43311;SDS011;30041;48.300;16.352;2023-01-19T06:16:48;0.00;;;0.00;;
43311;SDS011;30041;48.300;16.352;2023-01-19T06:19:13;0.00;;;0.00;;
43311;SDS011;30041;48.300;16.352;2023-01-19T06:21:39;0.00;;;0.00;;
43311;SDS011;30041;48.300;16.352;2023-01-19T06:24:04;0.05;;;0.00;;
43311;SDS011;30041;48.300;16.352;2023-01-19T06:26:30;0.00;;;0.00;;
43311;SDS011;30041;48.300;16.352;2023-01-19T06:28:55;0.10;;;0.00;;
43311;SDS011;30041;48.300;16.352;2023-01-19T06:31:21;9.32;;;2.08;;
43311;SDS011;30041;48.300;16.352;2023-01-19T06:33:46;19.30;;;4.93;;
43311;SDS011;30041;48.300;16.352;2023-01-19T06:36:12;17.80;;;4.95;;
43311;SDS011;30041;48.300;16.352;2023-01-19T06:38:37;22.00;;;5.43;;
43311;SDS011;30041;48.300;16.352;2023-01-19T06:41:03;20.90;;;5.13;;
43311;SDS011;30041;48.300;16.352;2023-01-19T06:43:29;15.23;;;5.25;;
43311;SDS011;30041;48.300;16.352;2023-01-19T06:45:54;15.95;;;4.82;;
43311;SDS011;30041;48.300;16.352;2023-01-19T06:48:20;25.55;;;5.47;;
43311;SDS011;30041;48.300;16.352;2023-01-19T06:50:46;18.02;;;5.53;;
43311;SDS011;30041;48.300;16.352;2023-01-19T06:53:12;25.10;;;5.50;;
43311;SDS011;30041;48.300;16.352;2023-01-19T06:55:38;15.27;;;5.22;;
43311;SDS011;30041;48.300;16.352;2023-01-19T06:58:04;18.98;;;5.60;;
43311;SDS011;30041;48.300;16.352;2023-01-19T07:00:31;16.38;;;5.20;;
43311;SDS011;30041;48.300;16.352;2023-01-19T07:02:56;16.30;;;5.30;;
43311;SDS011;30041;48.300;16.352;2023-01-19T07:05:22;15.27;;;5.30;;
43311;SDS011;30041;48.300;16.352;2023-01-19T07:07:56;16.98;;;4.50;;
43311;SDS011;30041;48.300;16.352;2023-01-19T07:10:22;23.95;;;5.82;;
43311;SDS011;30041;48.300;16.352;2023-01-19T07:12:48;11.55;;;4.15;;
43311;SDS011;30041;48.300;16.352;2023-01-19T07:15:14;12.63;;;4.30;;
43311;SDS011;30041;48.300;16.352;2023-01-19T07:17:41;13.68;;;4.15;;
43311;SDS011;30041;48.300;16.352;2023-01-19T07:20:08;18.23;;;4.75;;
43311;SDS011;30041;48.300;16.352;2023-01-19T07:22:34;11.80;;;4.15;;
43311;SDS011;30041;48.300;16.352;2023-01-19T07:25:00;13.68;;;3.85;;
43311;SDS011;30041;48.300;16.352;2023-01-19T07:27:25;10.82;;;3.70;;
43311;SDS011;30041;48.300;16.352;2023-01-19T07:29:51;12.57;;;3.88;;
43311;SDS011;30041;48.300;16.352;2023-01-19T07:32:16;9.57;;;3.67;;
43311;SDS011;30041;48.300;16.352;2023-01-19T07:34:42;6.72;;;3.20;;
43311;SDS011;30041;48.300;16.352;2023-01-19T07:37:07;11.02;;;3.80;;
43311;SDS011;30041;48.300;16.352;2023-01-19T07:39:33;10.80;;;3.30;;
43311;SDS011;30041;48.300;16.352;2023-01-19T07:41:58;11.30;;;3.67;;
43311;SDS011;30041;48.300;16.352;2023-01-19T07:44:24;9.90;;;3.60;;
43311;SDS011;30041;48.300;16.352;2023-01-19T07:46:49;9.88;;;3.60;;
43311;SDS011;30041;48.300;16.352;2023-01-19T07:49:15;11.63;;;3.75;;
43311;SDS011;30041;48.300;16.352;2023-01-19T07:51:41;10.57;;;3.55;;
43311;SDS011;30041;48.300;16.352;2023-01-19T07:54:06;8.60;;;3.53;;
43311;SDS011;30041;48.300;16.352;2023-01-19T07:56:31;12.73;;;3.55;;
43311;SDS011;30041;48.300;16.352;2023-01-19T07:58:57;9.70;;;3.33;;
43311;SDS011;30041;48.300;16.352;2023-01-19T08:01:22;11.82;;;3.42;;
43311;SDS011;30041;48.300;16.352;2023-01-19T08:03:48;8.68;;;3.60;;
43311;SDS011;30041;48.300;16.352;2023-01-19T08:06:18;9.23;;;3.60;;
43311;SDS011;30041;48.300;16.352;2023-01-19T08:08:45;10.80;;;3.40;;
43311;SDS011;30041;48.300;16.352;2023-01-19T08:11:11;10.73;;;3.22;;
43311;SDS011;30041;48.300;16.352;2023-01-19T08:13:36;7.22;;;3.00;;
43311;SDS011;30041;48.300;16.352;2023-01-19T08:16:02;7.50;;;2.88;;
43311;SDS011;30041;48.300;16.352;2023-01-19T08:18:27;10.90;;;3.50;;
43311;SDS011;30041;48.300;16.352;2023-01-19T08:20:53;7.90;;;2.72;;
43311;SDS011;30041;48.300;16.352;2023-01-19T08:23:18;9.25;;;3.20;;
43311;SDS011;30041;48.300;16.352;2023-01-19T08:25:44;7.20;;;3.03;;
43311;SDS011;30041;48.300;16.352;2023-01-19T08:28:12;6.82;;;2.83;;
43311;SDS011;30041;48.300;16.352;2023-01-19T08:30:42;6.95;;;3.05;;
43311;SDS011;30041;48.300;16.352;2023-01-19T08:33:08;7.47;;;2.95;;
43311;SDS011;30041;48.300;16.352;2023-01-19T08:35:35;6.82;;;2.70;;
43311;SDS011;30041;48.300;16.352;2023-01-19T08:38:03;6.90;;;2.90;;
43311;SDS011;30041;48.300;16.352;2023-01-19T08:40:30;6.68;;;3.00;;
43311;SDS011;30041;48.300;16.352;2023-01-19T08:42:57;8.02;;;2.92;;
43311;SDS011;30041;48.300;16.352;2023-01-19T08:45:27;6.72;;;2.75;;
43311;SDS011;30041;48.300;16.352;2023-01-19T08:47:53;7.95;;;2.85;;
43311;SDS011;30041;48.300;16.352;2023-01-19T08:50:19;7.88;;;3.05;;
43311;SDS011;30041;48.300;16.352;2023-01-19T08:52:45;7.30;;;2.75;;
43311;SDS011;30041;48.300;16.352;2023-01-19T08:55:10;6.28;;;2.63;;
43311;SDS011;30041;48.300;16.352;2023-01-19T08:57:36;8.50;;;2.70;;
43311;SDS011;30041;48.300;16.352;2023-01-19T09:00:02;8.73;;;3.13;;
43311;SDS011;30041;48.300;16.352;2023-01-19T09:02:28;8.52;;;2.63;;
43311;SDS011;30041;48.300;16.352;2023-01-19T09:04:53;7.63;;;2.38;;
43311;SDS011;30041;48.300;16.352;2023-01-19T09:07:19;5.80;;;2.50;;
43311;SDS011;30041;48.300;16.352;2023-01-19T09:09:44;7.75;;;2.47;;
43311;SDS011;30041;48.300;16.352;2023-01-19T09:12:10;5.05;;;1.95;;
43311;SDS011;30041;48.300;16.352;2023-01-19T09:14:35;5.13;;;2.00;;
43311;SDS011;30041;48.300;16.352;2023-01-19T09:17:01;5.05;;;2.08;;
43311;SDS011;30041;48.300;16.352;2023-01-19T09:19:26;5.28;;;2.05;;
43311;SDS011;30041;48.300;16.352;2023-01-19T09:21:52;4.15;;;1.67;;
43311;SDS011;30041;48.300;16.352;2023-01-19T09:24:18;4.75;;;1.75;;
43311;SDS011;30041;48.300;16.352;2023-01-19T09:26:43;3.45;;;1.40;;
43311;SDS011;30041;48.300;16.352;2023-01-19T09:29:09;3.63;;;1.52;;
43311;SDS011;30041;48.300;16.352;2023-01-19T09:31:34;5.05;;;1.48;;
43311;SDS011;30041;48.300;16.352;2023-01-19T09:34:01;2.90;;;1.30;;
43311;SDS011;30041;48.300;16.352;2023-01-19T09:36:26;2.13;;;1.10;;
43311;SDS011;30041;48.300;16.352;2023-01-19T09:38:52;4.20;;;1.38;;
43311;SDS011;30041;48.300;16.352;2023-01-19T09:41:21;2.47;;;1.00;;
43311;SDS011;30041;48.300;16.352;2023-01-19T09:43:50;2.15;;;1.05;;
43311;SDS011;30041;48.300;16.352;2023-01-19T09:46:24;1.67;;;0.90;;
43311;SDS011;30041;48.300;16.352;2023-01-19T09:48:57;1.60;;;0.90;;
43311;SDS011;30041;48.300;16.352;2023-01-19T09:51:27;2.83;;;0.90;;
43311;SDS011;30041;48.300;16.352;2023-01-19T09:54:10;2.88;;;1.05;;
43311;SDS011;30041;48.300;16.352;2023-01-19T09:56:36;3.35;;;1.13;;
43311;SDS011;30041;48.300;16.352;2023-01-19T09:59:02;2.55;;;1.05;;
43311;SDS011;30041;48.300;16.352;2023-01-19T10:04:39;1.88;;;0.77;;
43311;SDS011;30041;48.300;16.352;2023-01-19T10:07:12;1.63;;;0.73;;
43311;SDS011;30041;48.300;16.352;2023-01-19T10:09:50;1.38;;;0.60;;
43311;SDS011;30041;48.300;16.352;2023-01-19T10:12:58;1.60;;;0.65;;
43311;SDS011;30041;48.300;16.352;2023-01-19T10:18:28;1.73;;;0.63;;
43311;SDS011;30041;48.300;16.352;2023-01-19T10:21:13;1.45;;;0.57;;
43311;SDS011;30041;48.300;16.352;2023-01-19T10:26:18;1.25;;;0.63;;
43311;SDS011;30041;48.300;16.352;2023-01-19T10:28:48;0.73;;;0.43;;
43311;SDS011;30041;48.300;16.352;2023-01-19T10:31:17;1.40;;;0.50;;
43311;SDS011;30041;48.300;16.352;2023-01-19T10:33:46;0.90;;;0.50;;
43311;SDS011;30041;48.300;16.352;2023-01-19T10:36:20;0.70;;;0.50;;
43311;SDS011;30041;48.300;16.352;2023-01-19T10:38:54;1.00;;;0.47;;
43311;SDS011;30041;48.300;16.352;2023-01-19T10:41:40;0.63;;;0.40;;
43311;SDS011;30041;48.300;16.352;2023-01-19T10:44:06;1.15;;;0.50;;
43311;SDS011;30041;48.300;16.352;2023-01-19T10:46:45;2.15;;;0.70;;
43311;SDS011;30041;48.300;16.352;2023-01-19T10:49:22;1.25;;;0.70;;
43311;SDS011;30041;48.300;16.352;2023-01-19T10:54:14;4.13;;;0.90;;
43311;SDS011;30041;48.300;16.352;2023-01-19T10:56:40;1.88;;;0.98;;
43311;SDS011;30041;48.300;16.352;2023-01-19T10:59:26;1.83;;;0.75;;
43311;SDS011;30041;48.300;16.352;2023-01-19T11:02:14;1.40;;;0.70;;
43311;SDS011;30041;48.300;16.352;2023-01-19T11:04:45;1.65;;;0.77;;
43311;SDS011;30041;48.300;16.352;2023-01-19T11:07:13;3.60;;;0.80;;
43311;SDS011;30041;48.300;16.352;2023-01-19T11:12:44;1.73;;;0.90;;
43311;SDS011;30041;48.300;16.352;2023-01-19T11:15:24;3.97;;;0.80;;
43311;SDS011;30041;48.300;16.352;2023-01-19T11:17:56;1.15;;;0.40;;
43311;SDS011;30041;48.300;16.352;2023-01-19T11:20:29;1.63;;;0.55;;
43311;SDS011;30041;48.300;16.352;2023-01-19T11:25:52;1.35;;;0.60;;
43311;SDS011;30041;48.300;16.352;2023-01-19T11:28:23;1.20;;;0.60;;
43311;SDS011;30041;48.300;16.352;2023-01-19T11:30:55;1.27;;;0.40;;
43311;SDS011;30041;48.300;16.352;2023-01-19T11:33:27;0.95;;;0.50;;
43311;SDS011;30041;48.300;16.352;2023-01-19T11:36:03;1.85;;;0.40;;
43311;SDS011;30041;48.300;16.352;2023-01-19T11:38:30;0.87;;;0.47;;
43311;SDS011;30041;48.300;16.352;2023-01-19T11:40:57;1.70;;;0.40;;
43311;SDS011;30041;48.300;16.352;2023-01-19T11:43:26;1.25;;;0.30;;
43311;SDS011;30041;48.300;16.352;2023-01-19T11:45:53;0.75;;;0.40;;
43311;SDS011;30041;48.300;16.352;2023-01-19T11:48:22;0.75;;;0.32;;
43311;SDS011;30041;48.300;16.352;2023-01-19T11:50:52;1.38;;;0.40;;
43311;SDS011;30041;48.300;16.352;2023-01-19T11:53:22;0.77;;;0.32;;
43311;SDS011;30041;48.300;16.352;2023-01-19T11:58:19;0.32;;;0.20;;
43311;SDS011;30041;48.300;16.352;2023-01-19T12:00:53;1.05;;;0.50;;
43311;SDS011;30041;48.300;16.352;2023-01-19T12:03:24;1.00;;;0.30;;
43311;SDS011;30041;48.300;16.352;2023-01-19T12:05:54;0.50;;;0.30;;
43311;SDS011;30041;48.300;16.352;2023-01-19T12:10:59;0.43;;;0.25;;
43311;SDS011;30041;48.300;16.352;2023-01-19T12:13:27;0.88;;;0.40;;
43311;SDS011;30041;48.300;16.352;2023-01-19T12:15:58;0.52;;;0.30;;
43311;SDS011;30041;48.300;16.352;2023-01-19T12:18:38;0.20;;;0.10;;
43311;SDS011;30041;48.300;16.352;2023-01-19T12:21:08;0.47;;;0.20;;
43311;SDS011;30041;48.300;16.352;2023-01-19T12:26:28;0.17;;;0.10;;
43311;SDS011;30041;48.300;16.352;2023-01-19T12:29:02;0.30;;;0.20;;
43311;SDS011;30041;48.300;16.352;2023-01-19T12:31:39;0.40;;;0.20;;
43311;SDS011;30041;48.300;16.352;2023-01-19T12:36:49;1.00;;;0.50;;
43311;SDS011;30041;48.300;16.352;2023-01-19T12:39:16;1.13;;;0.43;;
43311;SDS011;30041;48.300;16.352;2023-01-19T12:41:47;0.95;;;0.57;;
43311;SDS011;30041;48.300;16.352;2023-01-19T12:44:27;1.33;;;0.52;;
43311;SDS011;30041;48.300;16.352;2023-01-19T12:49:28;1.17;;;0.50;;
43311;SDS011;30041;48.300;16.352;2023-01-19T12:57:50;1.42;;;0.47;;
43311;SDS011;30041;48.300;16.352;2023-01-19T13:02:46;1.20;;;0.40;;
43311;SDS011;30041;48.300;16.352;2023-01-19T13:13:29;1.85;;;0.40;;
43311;SDS011;30041;48.300;16.352;2023-01-19T13:18:51;0.50;;;0.20;;
43311;SDS011;30041;48.300;16.352;2023-01-19T13:21:33;0.50;;;0.30;;
43311;SDS011;30041;48.300;16.352;2023-01-19T13:24:02;1.30;;;0.40;;
43311;SDS011;30041;48.300;16.352;2023-01-19T13:26:33;1.40;;;0.30;;
43311;SDS011;30041;48.300;16.352;2023-01-19T13:29:21;1.65;;;0.30;;
43311;SDS011;30041;48.300;16.352;2023-01-19T13:31:53;0.55;;;0.22;;
43311;SDS011;30041;48.300;16.352;2023-01-19T13:34:22;0.43;;;0.20;;
43311;SDS011;30041;48.300;16.352;2023-01-19T13:36:53;0.50;;;0.20;;
43311;SDS011;30041;48.300;16.352;2023-01-19T13:41:56;1.35;;;0.20;;
43311;SDS011;30041;48.300;16.352;2023-01-19T13:44:28;1.00;;;0.25;;
43311;SDS011;30041;48.300;16.352;2023-01-19T13:47:02;0.33;;;0.20;;
43311;SDS011;30041;48.300;16.352;2023-01-19T13:49:28;0.10;;;0.10;;
43311;SDS011;30041;48.300;16.352;2023-01-19T13:52:04;1.13;;;0.20;;
43311;SDS011;30041;48.300;16.352;2023-01-19T13:54:31;0.30;;;0.20;;
43311;SDS011;30041;48.300;16.352;2023-01-19T13:56:57;0.30;;;0.10;;
43311;SDS011;30041;48.300;16.352;2023-01-19T13:59:23;0.25;;;0.10;;
43311;SDS011;30041;48.300;16.352;2023-01-19T14:01:48;0.30;;;0.10;;
43311;SDS011;30041;48.300;16.352;2023-01-19T14:04:27;1.10;;;0.20;;
43311;SDS011;30041;48.300;16.352;2023-01-19T14:06:55;0.52;;;0.10;;
43311;SDS011;30041;48.300;16.352;2023-01-19T14:09:26;0.10;;;0.10;;
43311;SDS011;30041;48.300;16.352;2023-01-19T14:12:11;0.60;;;0.20;;
43311;SDS011;30041;48.300;16.352;2023-01-19T14:14:41;0.10;;;0.08;;
43311;SDS011;30041;48.300;16.352;2023-01-19T14:17:19;4.10;;;0.70;;
43311;SDS011;30041;48.300;16.352;2023-01-19T14:19:49;3.10;;;0.80;;
43311;SDS011;30041;48.300;16.352;2023-01-19T14:22:18;3.85;;;0.85;;
43311;SDS011;30041;48.300;16.352;2023-01-19T14:28:23;3.72;;;1.13;;
43311;SDS011;30041;48.300;16.352;2023-01-19T14:31:15;23.17;;;2.35;;
43311;SDS011;30041;48.300;16.352;2023-01-19T14:33:46;10.25;;;1.55;;
43311;SDS011;30041;48.300;16.352;2023-01-19T14:38:45;7.53;;;1.40;;
43311;SDS011;30041;48.300;16.352;2023-01-19T14:41:20;4.63;;;1.20;;
43311;SDS011;30041;48.300;16.352;2023-01-19T14:43:51;4.93;;;1.40;;
43311;SDS011;30041;48.300;16.352;2023-01-19T14:46:17;8.18;;;1.38;;
43311;SDS011;30041;48.300;16.352;2023-01-19T14:48:45;4.60;;;1.30;;
43311;SDS011;30041;48.300;16.352;2023-01-19T14:51:14;10.85;;;1.42;;
43311;SDS011;30041;48.300;16.352;2023-01-19T14:53:45;8.80;;;1.52;;
43311;SDS011;30041;48.300;16.352;2023-01-19T14:56:22;8.80;;;1.27;;
43311;SDS011;30041;48.300;16.352;2023-01-19T14:58:49;6.45;;;1.50;;
43311;SDS011;30041;48.300;16.352;2023-01-19T15:01:15;9.02;;;1.50;;
43311;SDS011;30041;48.300;16.352;2023-01-19T15:03:41;6.32;;;1.50;;
43311;SDS011;30041;48.300;16.352;2023-01-19T15:06:09;6.22;;;1.63;;
43311;SDS011;30041;48.300;16.352;2023-01-19T15:08:44;4.20;;;1.38;;
43311;SDS011;30041;48.300;16.352;2023-01-19T15:11:14;5.35;;;1.67;;
43311;SDS011;30041;48.300;16.352;2023-01-19T15:16:11;4.97;;;1.10;;
43311;SDS011;30041;48.300;16.352;2023-01-19T15:18:37;3.97;;;1.30;;
43311;SDS011;30041;48.300;16.352;2023-01-19T15:21:03;5.73;;;1.30;;
43311;SDS011;30041;48.300;16.352;2023-01-19T15:23:29;3.03;;;1.10;;
43311;SDS011;30041;48.300;16.352;2023-01-19T15:26:02;3.63;;;1.30;;
43311;SDS011;30041;48.300;16.352;2023-01-19T15:28:29;5.95;;;1.27;;
43311;SDS011;30041;48.300;16.352;2023-01-19T15:30:56;4.93;;;1.40;;
43311;SDS011;30041;48.300;16.352;2023-01-19T15:33:24;4.78;;;1.23;;
43311;SDS011;30041;48.300;16.352;2023-01-19T15:35:51;4.35;;;1.13;;
43311;SDS011;30041;48.300;16.352;2023-01-19T15:38:17;5.60;;;1.20;;
43311;SDS011;30041;48.300;16.352;2023-01-19T15:40:43;4.95;;;1.52;;
43311;SDS011;30041;48.300;16.352;2023-01-19T15:43:10;9.95;;;1.73;;
43311;SDS011;30041;48.300;16.352;2023-01-19T15:45:36;4.93;;;1.67;;
43311;SDS011;30041;48.300;16.352;2023-01-19T15:48:09;6.70;;;1.88;;
43311;SDS011;30041;48.300;16.352;2023-01-19T15:50:37;6.03;;;1.38;;
43311;SDS011;30041;48.300;16.352;2023-01-19T15:53:04;5.15;;;1.40;;
43311;SDS011;30041;48.300;16.352;2023-01-19T15:55:30;5.47;;;1.23;;
43311;SDS011;30041;48.300;16.352;2023-01-19T15:57:55;5.32;;;1.40;;
43311;SDS011;30041;48.300;16.352;2023-01-19T16:00:21;8.07;;;1.40;;
43311;SDS011;30041;48.300;16.352;2023-01-19T16:02:47;5.53;;;1.25;;